createdAt,value
2018-05-31T12:03:57.750Z,36.00
2018-05-31T12:06:27.140Z,36.20
2018-05-31T12:08:56.955Z,36.10
2018-05-31T12:12:59.035Z,31.90
2018-05-31T12:15:28.440Z,31.90
2018-05-31T12:17:57.839Z,31.50
2018-05-31T12:20:27.759Z,33.30
2018-05-31T12:22:57.176Z,34.20
2018-05-31T12:25:26.744Z,32.40
2018-05-31T12:27:56.255Z,32.20
2018-05-31T12:30:25.977Z,31.90
2018-05-31T12:32:55.384Z,32.60
2018-05-31T12:35:25.031Z,33.10
2018-05-31T12:37:54.399Z,32.80
2018-05-31T12:40:25.012Z,33.10
2018-05-31T12:42:54.753Z,32.80
2018-05-31T12:45:24.564Z,34.20
2018-05-31T12:47:54.530Z,35.70
2018-05-31T12:50:24.363Z,35.80
2018-05-31T12:52:55.142Z,35.90
2018-05-31T12:55:24.970Z,35.70
2018-05-31T12:57:54.577Z,34.20
2018-05-31T13:00:25.005Z,34.40
2018-05-31T13:02:56.378Z,33.00
2018-05-31T13:05:26.279Z,33.00
2018-05-31T13:07:56.963Z,32.10
2018-05-31T13:10:26.777Z,32.80
2018-05-31T13:12:57.193Z,33.60
2018-05-31T13:15:27.725Z,36.10
2018-05-31T13:17:58.613Z,33.50
2018-05-31T13:20:28.558Z,33.50
2018-05-31T13:22:58.860Z,31.30
2018-05-31T13:25:28.538Z,31.10
2018-05-31T13:27:58.228Z,31.60
2018-05-31T13:30:28.046Z,31.40
2018-05-31T13:32:58.182Z,32.60
2018-05-31T13:35:28.644Z,32.20
2018-05-31T13:37:58.734Z,31.40
2018-05-31T13:40:28.999Z,31.10
2018-05-31T13:42:59.904Z,32.30
2018-05-31T13:45:36.502Z,32.30
2018-05-31T13:48:06.551Z,32.50
2018-05-31T13:50:36.466Z,32.60
2018-05-31T13:53:06.236Z,33.10
2018-05-31T13:55:37.660Z,33.50
2018-05-31T13:58:12.081Z,34.10
2018-05-31T14:00:42.389Z,35.00
2018-05-31T14:03:13.213Z,34.80
2018-05-31T14:05:43.213Z,35.80
2018-05-31T14:08:13.196Z,36.40
2018-05-31T14:13:33.826Z,37.10
2018-05-31T14:16:03.959Z,37.40
2018-05-31T14:18:34.592Z,35.10
2018-05-31T14:21:04.323Z,35.10
2018-05-31T14:23:34.278Z,34.70
2018-05-31T14:26:06.997Z,35.10
2018-05-31T14:28:36.749Z,35.30
2018-05-31T14:31:06.646Z,35.40
2018-05-31T14:33:36.863Z,35.20
2018-05-31T14:36:06.928Z,35.20
2018-05-31T14:38:37.176Z,35.10
2018-05-31T14:41:06.859Z,35.10
2018-05-31T14:43:36.760Z,34.90
2018-05-31T14:46:06.569Z,34.80
2018-05-31T14:48:36.409Z,34.80
2018-05-31T14:51:06.422Z,34.40
2018-05-31T14:53:36.699Z,34.20
2018-05-31T14:56:07.779Z,34.00
2018-05-31T14:58:37.585Z,33.90
2018-05-31T15:01:07.585Z,33.20
2018-05-31T15:03:37.292Z,32.30
2018-05-31T15:06:06.905Z,31.40
2018-05-31T15:08:36.960Z,30.90
2018-05-31T15:11:06.906Z,30.30
2018-05-31T15:13:38.004Z,29.60
2018-05-31T15:16:08.406Z,29.00
2018-05-31T15:18:39.926Z,28.40
2018-05-31T15:21:09.798Z,27.90
2018-05-31T15:23:39.652Z,27.50
2018-05-31T15:26:10.334Z,27.10
2018-05-31T15:28:40.042Z,26.40
2018-05-31T15:31:09.576Z,25.80
2018-05-31T15:33:39.289Z,25.10
2018-05-31T15:36:09.249Z,24.50
2018-05-31T15:38:39.855Z,24.10
2018-05-31T15:41:09.464Z,23.70
2018-05-31T15:43:39.091Z,23.30
2018-05-31T15:46:08.699Z,23.00
2018-05-31T15:48:38.299Z,22.80
2018-05-31T15:51:07.943Z,22.70
2018-05-31T15:53:38.222Z,22.60
2018-05-31T15:56:08.722Z,22.30
2018-05-31T15:58:38.279Z,22.30
2018-05-31T16:01:08.405Z,22.30
2018-05-31T16:03:37.813Z,22.20
2018-05-31T16:06:07.158Z,22.30
2018-05-31T16:08:36.532Z,22.20
2018-05-31T16:11:06.910Z,22.10
2018-05-31T16:13:36.229Z,22.20
2018-05-31T16:16:05.608Z,22.20
2018-05-31T16:18:36.158Z,22.20
2018-05-31T16:21:05.498Z,21.90
2018-05-31T16:23:35.557Z,21.90
2018-05-31T16:26:05.376Z,22.10
2018-05-31T16:28:34.855Z,22.20
2018-05-31T16:31:04.921Z,21.90
2018-05-31T16:33:34.223Z,21.90
2018-05-31T16:36:03.537Z,21.80
2018-05-31T16:38:32.988Z,21.70
2018-05-31T16:41:03.135Z,21.60
2018-05-31T16:43:32.439Z,21.80
2018-05-31T16:46:01.757Z,21.90
2018-05-31T16:48:31.175Z,22.10
2018-05-31T16:51:01.374Z,22.40
2018-05-31T16:53:30.875Z,22.50
2018-05-31T16:56:00.967Z,23.90
2018-05-31T16:58:31.205Z,23.90
2018-05-31T17:03:47.488Z,23.80
2018-05-31T17:06:17.714Z,23.60
2018-05-31T17:11:37.421Z,23.40
2018-05-31T17:14:07.710Z,22.90
2018-05-31T17:16:37.218Z,22.90
2018-05-31T17:19:06.561Z,23.10
2018-05-31T17:21:36.529Z,22.90
2018-05-31T17:24:06.621Z,22.60
2018-05-31T17:26:36.182Z,22.50
2018-05-31T17:29:06.159Z,22.40
2018-05-31T17:31:36.345Z,22.40
2018-05-31T17:34:05.760Z,22.40
2018-05-31T17:36:35.175Z,22.20
2018-05-31T17:39:06.641Z,22.10
2018-05-31T17:41:38.393Z,22.00
2018-05-31T17:44:10.141Z,21.90
2018-05-31T17:46:40.287Z,21.70
2018-05-31T17:49:10.467Z,21.70
2018-05-31T17:51:39.845Z,21.60
2018-05-31T17:54:09.270Z,21.60
2018-05-31T17:56:49.884Z,21.50
2018-05-31T17:59:19.278Z,21.50
2018-05-31T18:04:40.390Z,21.10
2018-05-31T18:10:00.269Z,21.10
2018-05-31T18:12:29.689Z,21.00
2018-05-31T18:14:59.857Z,21.10
2018-05-31T18:17:29.233Z,21.10
2018-05-31T18:19:59.487Z,21.00
2018-05-31T18:22:29.063Z,21.00
2018-05-31T18:24:58.829Z,21.00
2018-05-31T18:27:28.304Z,21.10
2018-05-31T18:29:58.724Z,21.10
2018-05-31T18:32:28.296Z,21.20
2018-05-31T18:34:57.739Z,21.20
2018-05-31T18:37:27.085Z,21.10
2018-05-31T18:39:56.456Z,21.00
2018-05-31T18:42:26.567Z,20.90
2018-05-31T18:44:56.205Z,20.90
2018-05-31T18:47:27.526Z,20.90
2018-05-31T18:49:56.969Z,20.90
2018-05-31T18:52:26.561Z,20.90
2018-05-31T18:54:57.051Z,20.90
2018-05-31T18:57:26.517Z,21.00
2018-05-31T18:59:56.064Z,21.00
2018-05-31T19:02:25.625Z,21.00
2018-05-31T19:04:55.283Z,21.10
2018-05-31T19:07:26.637Z,21.20
2018-05-31T19:09:56.342Z,21.20
2018-05-31T19:12:30.135Z,21.30
2018-05-31T19:14:59.967Z,21.40
2018-05-31T19:17:30.491Z,21.40
2018-05-31T19:20:00.299Z,21.40
2018-05-31T19:22:30.010Z,21.40
2018-05-31T19:25:04.845Z,21.40
2018-05-31T19:27:34.437Z,21.40
2018-05-31T19:30:07.929Z,21.50
2018-05-31T19:32:38.109Z,21.60
2018-05-31T19:35:12.317Z,21.60
2018-05-31T19:37:41.754Z,21.60
2018-05-31T19:40:11.500Z,21.60
2018-05-31T19:42:45.024Z,21.60
2018-05-31T19:45:15.115Z,21.70
2018-05-31T19:47:45.049Z,21.70
2018-05-31T19:50:15.411Z,21.60
2018-05-31T19:53:52.575Z,21.60
2018-05-31T19:56:22.603Z,21.70
2018-05-31T20:00:59.449Z,21.60
2018-05-31T20:03:32.834Z,21.50
2018-05-31T20:06:02.787Z,21.30
2018-05-31T20:08:33.641Z,21.20
2018-05-31T20:11:03.426Z,21.20
2018-05-31T20:13:32.905Z,21.10
2018-05-31T20:16:03.098Z,21.20
2018-05-31T20:18:32.577Z,21.30
2018-05-31T20:21:02.998Z,21.20
2018-05-31T20:23:34.407Z,21.20
2018-05-31T20:26:03.917Z,21.20
2018-05-31T20:28:33.823Z,21.10
2018-05-31T20:31:04.129Z,21.00
2018-05-31T20:33:33.593Z,20.90
2018-05-31T20:36:04.729Z,20.90
2018-05-31T20:38:34.502Z,20.80
2018-05-31T20:41:04.139Z,20.70
2018-05-31T20:43:34.106Z,20.70
2018-05-31T20:46:03.967Z,20.80
2018-05-31T20:48:33.755Z,20.70
2018-05-31T20:51:03.498Z,20.70
2018-05-31T20:53:33.487Z,20.70
2018-05-31T20:56:03.381Z,20.60
2018-05-31T20:58:33.212Z,20.60
2018-05-31T21:01:02.928Z,20.50
2018-05-31T21:03:33.028Z,20.50
2018-05-31T21:06:02.696Z,20.50
2018-05-31T21:08:32.665Z,20.50
2018-05-31T21:11:03.069Z,20.50
2018-05-31T21:13:32.765Z,20.60
2018-05-31T21:16:02.558Z,20.60
2018-05-31T21:18:32.762Z,20.60
2018-05-31T21:21:03.929Z,20.30
2018-05-31T21:23:34.131Z,20.30
2018-05-31T21:26:04.002Z,20.20
2018-05-31T21:28:33.581Z,20.00
2018-05-31T21:31:03.321Z,19.90
2018-05-31T21:33:33.234Z,19.70
2018-05-31T21:36:03.469Z,19.60
2018-05-31T21:38:34.042Z,19.40
2018-05-31T21:41:03.711Z,19.40
2018-05-31T21:43:33.328Z,19.30
2018-05-31T21:46:03.246Z,19.40
2018-05-31T21:48:34.256Z,19.40
2018-05-31T21:51:04.017Z,19.30
2018-05-31T21:53:34.436Z,19.30
2018-05-31T21:56:03.909Z,19.20
2018-05-31T21:58:34.324Z,19.20
2018-05-31T22:01:04.750Z,19.10
2018-05-31T22:03:34.962Z,19.00
2018-05-31T22:06:04.596Z,19.00
2018-05-31T22:08:34.653Z,19.00
2018-05-31T22:11:04.540Z,19.00
2018-05-31T22:13:34.154Z,19.00
2018-05-31T22:16:03.688Z,18.90
2018-05-31T22:18:33.340Z,18.90
2018-05-31T22:21:03.021Z,18.90
2018-05-31T22:23:33.156Z,18.90
2018-05-31T22:26:02.825Z,18.80
2018-05-31T22:28:32.784Z,18.80
2018-05-31T22:31:03.834Z,18.70
2018-05-31T22:33:34.581Z,18.60
2018-05-31T22:36:03.949Z,18.60
2018-05-31T22:38:34.081Z,18.60
2018-05-31T22:41:04.344Z,18.60
2018-05-31T22:43:35.865Z,18.40
2018-05-31T22:46:05.268Z,18.40
2018-05-31T22:48:35.648Z,18.30
2018-05-31T22:51:05.953Z,18.20
2018-05-31T22:53:37.024Z,18.20
2018-05-31T22:56:07.440Z,18.10
2018-05-31T22:58:37.370Z,18.10
2018-05-31T23:01:07.696Z,18.10
2018-05-31T23:03:40.837Z,18.00
2018-05-31T23:06:11.333Z,17.90
2018-05-31T23:08:42.670Z,17.80
2018-05-31T23:11:12.626Z,17.80
2018-05-31T23:13:42.657Z,17.70
2018-05-31T23:16:12.304Z,17.70
2018-05-31T23:18:41.988Z,17.60
2018-05-31T23:21:12.058Z,17.60
2018-05-31T23:23:42.432Z,17.60
2018-05-31T23:26:12.992Z,17.40
2018-05-31T23:28:43.065Z,17.40
2018-05-31T23:31:13.790Z,17.40
2018-05-31T23:33:44.623Z,17.30
2018-05-31T23:36:14.944Z,17.30
2018-05-31T23:38:45.039Z,17.20
2018-05-31T23:41:15.734Z,17.20
2018-05-31T23:43:45.473Z,17.10
2018-05-31T23:46:15.433Z,17.10
2018-05-31T23:48:45.484Z,17.20
2018-05-31T23:51:15.405Z,17.20
2018-05-31T23:53:45.233Z,17.10
2018-05-31T23:56:15.046Z,17.10
2018-05-31T23:58:46.032Z,17.10
